sensor_id;sensor_type;location;lat;lon;timestamp;P1;durP1;ratioP1;P2;durP2;ratioP2
19183;SDS011;9724;51.194;6.856;2022-12-31T00:01:21;4.00;;;0.70;;
19183;SDS011;9724;51.194;6.856;2022-12-31T00:03:48;1.07;;;0.50;;
19183;SDS011;9724;51.194;6.856;2022-12-31T00:06:16;4.67;;;0.80;;
19183;SDS011;9724;51.194;6.856;2022-12-31T00:08:46;1.40;;;0.77;;
19183;SDS011;9724;51.194;6.856;2022-12-31T00:11:13;0.90;;;0.73;;
19183;SDS011;9724;51.194;6.856;2022-12-31T00:13:41;2.67;;;0.90;;
19183;SDS011;9724;51.194;6.856;2022-12-31T00:16:09;1.23;;;0.87;;
19183;SDS011;9724;51.194;6.856;2022-12-31T00:18:38;2.73;;;0.97;;
19183;SDS011;9724;51.194;6.856;2022-12-31T00:21:09;1.20;;;0.93;;
19183;SDS011;9724;51.194;6.856;2022-12-31T00:23:35;0.60;;;0.60;;
19183;SDS011;9724;51.194;6.856;2022-12-31T00:26:03;1.13;;;1.03;;
19183;SDS011;9724;51.194;6.856;2022-12-31T00:28:30;1.07;;;1.03;;
19183;SDS011;9724;51.194;6.856;2022-12-31T00:31:02;1.97;;;1.20;;
19183;SDS011;9724;51.194;6.856;2022-12-31T00:33:29;1.80;;;1.27;;
19183;SDS011;9724;51.194;6.856;2022-12-31T00:36:02;1.40;;;1.10;;
19183;SDS011;9724;51.194;6.856;2022-12-31T00:38:32;1.67;;;1.40;;
19183;SDS011;9724;51.194;6.856;2022-12-31T00:40:59;1.50;;;1.40;;
19183;SDS011;9724;51.194;6.856;2022-12-31T00:43:25;1.43;;;1.33;;
19183;SDS011;9724;51.194;6.856;2022-12-31T00:45:52;4.40;;;1.40;;
19183;SDS011;9724;51.194;6.856;2022-12-31T00:48:19;1.60;;;1.50;;
19183;SDS011;9724;51.194;6.856;2022-12-31T00:50:46;1.57;;;1.47;;
19183;SDS011;9724;51.194;6.856;2022-12-31T00:53:13;2.80;;;1.30;;
19183;SDS011;9724;51.194;6.856;2022-12-31T00:55:40;1.57;;;1.50;;
19183;SDS011;9724;51.194;6.856;2022-12-31T00:58:06;1.43;;;1.30;;
19183;SDS011;9724;51.194;6.856;2022-12-31T01:00:32;2.43;;;1.40;;
19183;SDS011;9724;51.194;6.856;2022-12-31T01:02:58;1.40;;;1.40;;
19183;SDS011;9724;51.194;6.856;2022-12-31T01:05:26;2.70;;;1.60;;
19183;SDS011;9724;51.194;6.856;2022-12-31T01:07:52;1.43;;;1.33;;
19183;SDS011;9724;51.194;6.856;2022-12-31T01:10:19;3.60;;;1.73;;
19183;SDS011;9724;51.194;6.856;2022-12-31T01:13:01;1.83;;;1.50;;
19183;SDS011;9724;51.194;6.856;2022-12-31T01:15:31;1.60;;;1.50;;
19183;SDS011;9724;51.194;6.856;2022-12-31T01:17:58;1.97;;;1.50;;
19183;SDS011;9724;51.194;6.856;2022-12-31T01:20:24;1.40;;;1.23;;
19183;SDS011;9724;51.194;6.856;2022-12-31T01:22:51;1.50;;;1.40;;
19183;SDS011;9724;51.194;6.856;2022-12-31T01:25:17;1.10;;;1.10;;
19183;SDS011;9724;51.194;6.856;2022-12-31T01:27:44;7.97;;;1.20;;
19183;SDS011;9724;51.194;6.856;2022-12-31T01:30:11;1.20;;;1.20;;
19183;SDS011;9724;51.194;6.856;2022-12-31T01:32:37;1.40;;;1.10;;
19183;SDS011;9724;51.194;6.856;2022-12-31T01:35:04;4.83;;;1.10;;
19183;SDS011;9724;51.194;6.856;2022-12-31T01:37:31;2.73;;;1.73;;
19183;SDS011;9724;51.194;6.856;2022-12-31T01:39:57;2.10;;;1.40;;
19183;SDS011;9724;51.194;6.856;2022-12-31T01:42:24;1.10;;;0.93;;
19183;SDS011;9724;51.194;6.856;2022-12-31T01:44:52;1.53;;;0.87;;
19183;SDS011;9724;51.194;6.856;2022-12-31T01:47:22;0.90;;;0.90;;
19183;SDS011;9724;51.194;6.856;2022-12-31T01:49:55;0.83;;;0.83;;
19183;SDS011;9724;51.194;6.856;2022-12-31T01:52:24;3.70;;;0.97;;
19183;SDS011;9724;51.194;6.856;2022-12-31T01:54:53;2.47;;;0.90;;
19183;SDS011;9724;51.194;6.856;2022-12-31T01:57:21;1.33;;;0.77;;
19183;SDS011;9724;51.194;6.856;2022-12-31T01:59:49;0.60;;;0.60;;
19183;SDS011;9724;51.194;6.856;2022-12-31T02:02:16;0.50;;;0.50;;
19183;SDS011;9724;51.194;6.856;2022-12-31T02:04:42;0.63;;;0.40;;
19183;SDS011;9724;51.194;6.856;2022-12-31T02:07:09;0.27;;;0.27;;
19183;SDS011;9724;51.194;6.856;2022-12-31T02:09:37;0.50;;;0.30;;
19183;SDS011;9724;51.194;6.856;2022-12-31T02:12:05;1.90;;;0.30;;
19183;SDS011;9724;51.194;6.856;2022-12-31T02:14:33;1.23;;;0.30;;
19183;SDS011;9724;51.194;6.856;2022-12-31T02:17:04;0.40;;;0.40;;
19183;SDS011;9724;51.194;6.856;2022-12-31T02:22:38;0.13;;;0.13;;
19183;SDS011;9724;51.194;6.856;2022-12-31T02:25:18;1.60;;;0.20;;
19183;SDS011;9724;51.194;6.856;2022-12-31T02:27:55;1.40;;;0.13;;
19183;SDS011;9724;51.194;6.856;2022-12-31T02:30:29;0.10;;;0.10;;
19183;SDS011;9724;51.194;6.856;2022-12-31T02:33:00;0.03;;;0.03;;
19183;SDS011;9724;51.194;6.856;2022-12-31T02:35:33;0.77;;;0.30;;
19183;SDS011;9724;51.194;6.856;2022-12-31T02:38:09;0.10;;;0.10;;
19183;SDS011;9724;51.194;6.856;2022-12-31T02:40:38;0.20;;;0.20;;
19183;SDS011;9724;51.194;6.856;2022-12-31T02:43:05;0.40;;;0.20;;
19183;SDS011;9724;51.194;6.856;2022-12-31T02:45:35;0.20;;;0.20;;
19183;SDS011;9724;51.194;6.856;2022-12-31T02:48:15;1.20;;;0.20;;
19183;SDS011;9724;51.194;6.856;2022-12-31T02:50:56;1.27;;;0.40;;
19183;SDS011;9724;51.194;6.856;2022-12-31T02:56:23;0.77;;;0.30;;
19183;SDS011;9724;51.194;6.856;2022-12-31T02:58:55;0.40;;;0.40;;
19183;SDS011;9724;51.194;6.856;2022-12-31T03:01:45;0.30;;;0.30;;
19183;SDS011;9724;51.194;6.856;2022-12-31T03:04:30;2.53;;;0.30;;
19183;SDS011;9724;51.194;6.856;2022-12-31T03:06:58;0.50;;;0.50;;
19183;SDS011;9724;51.194;6.856;2022-12-31T03:09:25;0.40;;;0.40;;
19183;SDS011;9724;51.194;6.856;2022-12-31T03:11:51;0.40;;;0.40;;
19183;SDS011;9724;51.194;6.856;2022-12-31T03:14:36;1.53;;;0.30;;
19183;SDS011;9724;51.194;6.856;2022-12-31T03:17:03;1.43;;;0.40;;
19183;SDS011;9724;51.194;6.856;2022-12-31T03:19:29;0.20;;;0.20;;
19183;SDS011;9724;51.194;6.856;2022-12-31T03:22:14;0.40;;;0.40;;
19183;SDS011;9724;51.194;6.856;2022-12-31T03:25:02;0.60;;;0.40;;
19183;SDS011;9724;51.194;6.856;2022-12-31T03:27:47;0.40;;;0.40;;
19183;SDS011;9724;51.194;6.856;2022-12-31T03:30:15;0.77;;;0.40;;
19183;SDS011;9724;51.194;6.856;2022-12-31T03:32:43;0.53;;;0.30;;
19183;SDS011;9724;51.194;6.856;2022-12-31T03:35:11;1.70;;;0.40;;
19183;SDS011;9724;51.194;6.856;2022-12-31T03:37:38;1.17;;;0.57;;
19183;SDS011;9724;51.194;6.856;2022-12-31T03:40:05;0.30;;;0.30;;
19183;SDS011;9724;51.194;6.856;2022-12-31T03:42:32;0.83;;;0.40;;
19183;SDS011;9724;51.194;6.856;2022-12-31T03:44:59;0.77;;;0.43;;
19183;SDS011;9724;51.194;6.856;2022-12-31T03:47:26;0.53;;;0.30;;
19183;SDS011;9724;51.194;6.856;2022-12-31T03:49:53;1.60;;;0.30;;
19183;SDS011;9724;51.194;6.856;2022-12-31T03:52:19;0.67;;;0.30;;
19183;SDS011;9724;51.194;6.856;2022-12-31T03:54:46;0.30;;;0.30;;
19183;SDS011;9724;51.194;6.856;2022-12-31T03:57:12;0.20;;;0.20;;
19183;SDS011;9724;51.194;6.856;2022-12-31T03:59:38;0.53;;;0.20;;
19183;SDS011;9724;51.194;6.856;2022-12-31T04:02:05;1.53;;;0.20;;
19183;SDS011;9724;51.194;6.856;2022-12-31T04:04:32;0.37;;;0.37;;
19183;SDS011;9724;51.194;6.856;2022-12-31T04:06:59;0.50;;;0.20;;
19183;SDS011;9724;51.194;6.856;2022-12-31T04:09:25;3.57;;;0.40;;
19183;SDS011;9724;51.194;6.856;2022-12-31T04:11:51;0.53;;;0.30;;
19183;SDS011;9724;51.194;6.856;2022-12-31T04:14:17;0.30;;;0.30;;
19183;SDS011;9724;51.194;6.856;2022-12-31T04:16:44;2.73;;;0.50;;
19183;SDS011;9724;51.194;6.856;2022-12-31T04:19:10;0.37;;;0.33;;
19183;SDS011;9724;51.194;6.856;2022-12-31T04:21:37;0.20;;;0.20;;
19183;SDS011;9724;51.194;6.856;2022-12-31T04:24:04;0.30;;;0.30;;
19183;SDS011;9724;51.194;6.856;2022-12-31T04:26:31;2.43;;;0.40;;
19183;SDS011;9724;51.194;6.856;2022-12-31T04:28:58;0.93;;;0.40;;
19183;SDS011;9724;51.194;6.856;2022-12-31T04:31:24;0.50;;;0.47;;
19183;SDS011;9724;51.194;6.856;2022-12-31T04:33:51;0.50;;;0.50;;
19183;SDS011;9724;51.194;6.856;2022-12-31T04:36:17;0.67;;;0.50;;
19183;SDS011;9724;51.194;6.856;2022-12-31T04:38:44;0.83;;;0.40;;
19183;SDS011;9724;51.194;6.856;2022-12-31T04:41:11;2.30;;;0.67;;
19183;SDS011;9724;51.194;6.856;2022-12-31T04:43:43;0.77;;;0.20;;
19183;SDS011;9724;51.194;6.856;2022-12-31T04:46:11;1.60;;;0.40;;
19183;SDS011;9724;51.194;6.856;2022-12-31T04:48:38;2.73;;;0.40;;
19183;SDS011;9724;51.194;6.856;2022-12-31T04:51:04;1.13;;;0.37;;
19183;SDS011;9724;51.194;6.856;2022-12-31T04:53:30;0.80;;;0.50;;
19183;SDS011;9724;51.194;6.856;2022-12-31T04:55:57;5.60;;;0.63;;
19183;SDS011;9724;51.194;6.856;2022-12-31T04:58:24;4.10;;;0.43;;
19183;SDS011;9724;51.194;6.856;2022-12-31T05:00:53;2.77;;;0.50;;
19183;SDS011;9724;51.194;6.856;2022-12-31T05:03:21;1.23;;;0.40;;
19183;SDS011;9724;51.194;6.856;2022-12-31T05:05:49;2.37;;;0.70;;
19183;SDS011;9724;51.194;6.856;2022-12-31T05:08:16;0.77;;;0.40;;
19183;SDS011;9724;51.194;6.856;2022-12-31T05:10:43;0.53;;;0.53;;
19183;SDS011;9724;51.194;6.856;2022-12-31T05:13:10;0.93;;;0.30;;
19183;SDS011;9724;51.194;6.856;2022-12-31T05:15:38;1.20;;;0.53;;
19183;SDS011;9724;51.194;6.856;2022-12-31T05:18:04;0.77;;;0.57;;
19183;SDS011;9724;51.194;6.856;2022-12-31T05:20:31;3.20;;;0.40;;
19183;SDS011;9724;51.194;6.856;2022-12-31T05:22:58;0.60;;;0.60;;
19183;SDS011;9724;51.194;6.856;2022-12-31T05:25:24;2.03;;;0.40;;
19183;SDS011;9724;51.194;6.856;2022-12-31T05:27:50;0.50;;;0.40;;
19183;SDS011;9724;51.194;6.856;2022-12-31T05:30:17;2.63;;;0.30;;
19183;SDS011;9724;51.194;6.856;2022-12-31T05:32:44;0.60;;;0.60;;
19183;SDS011;9724;51.194;6.856;2022-12-31T05:35:11;1.23;;;0.40;;
19183;SDS011;9724;51.194;6.856;2022-12-31T05:37:38;1.53;;;0.70;;
19183;SDS011;9724;51.194;6.856;2022-12-31T05:40:05;3.90;;;0.60;;
19183;SDS011;9724;51.194;6.856;2022-12-31T05:42:32;1.03;;;0.60;;
19183;SDS011;9724;51.194;6.856;2022-12-31T05:44:59;3.87;;;0.87;;
19183;SDS011;9724;51.194;6.856;2022-12-31T05:47:25;2.50;;;0.67;;
19183;SDS011;9724;51.194;6.856;2022-12-31T05:49:54;2.37;;;0.50;;
19183;SDS011;9724;51.194;6.856;2022-12-31T05:52:21;0.57;;;0.57;;
19183;SDS011;9724;51.194;6.856;2022-12-31T05:54:47;0.53;;;0.53;;
19183;SDS011;9724;51.194;6.856;2022-12-31T05:57:13;1.13;;;0.60;;
19183;SDS011;9724;51.194;6.856;2022-12-31T05:59:39;1.97;;;0.60;;
19183;SDS011;9724;51.194;6.856;2022-12-31T06:02:06;2.80;;;0.50;;
19183;SDS011;9724;51.194;6.856;2022-12-31T06:04:32;1.60;;;0.70;;
19183;SDS011;9724;51.194;6.856;2022-12-31T06:06:59;0.97;;;0.40;;
19183;SDS011;9724;51.194;6.856;2022-12-31T06:09:25;1.47;;;1.00;;
19183;SDS011;9724;51.194;6.856;2022-12-31T06:11:52;1.50;;;0.77;;
19183;SDS011;9724;51.194;6.856;2022-12-31T06:14:18;0.60;;;0.60;;
19183;SDS011;9724;51.194;6.856;2022-12-31T06:16:44;3.00;;;0.80;;
19183;SDS011;9724;51.194;6.856;2022-12-31T06:19:10;1.33;;;0.60;;
19183;SDS011;9724;51.194;6.856;2022-12-31T06:21:36;0.50;;;0.50;;
19183;SDS011;9724;51.194;6.856;2022-12-31T06:24:04;3.27;;;1.43;;
19183;SDS011;9724;51.194;6.856;2022-12-31T06:26:30;3.33;;;1.00;;
19183;SDS011;9724;51.194;6.856;2022-12-31T06:28:56;2.10;;;0.80;;
19183;SDS011;9724;51.194;6.856;2022-12-31T06:31:23;2.73;;;0.67;;
19183;SDS011;9724;51.194;6.856;2022-12-31T06:33:49;0.80;;;0.60;;
19183;SDS011;9724;51.194;6.856;2022-12-31T06:36:15;2.53;;;0.87;;
19183;SDS011;9724;51.194;6.856;2022-12-31T06:38:42;2.90;;;1.07;;
19183;SDS011;9724;51.194;6.856;2022-12-31T06:41:10;5.30;;;0.80;;
19183;SDS011;9724;51.194;6.856;2022-12-31T06:43:38;4.43;;;0.83;;
19183;SDS011;9724;51.194;6.856;2022-12-31T06:46:05;4.17;;;0.80;;
19183;SDS011;9724;51.194;6.856;2022-12-31T06:48:37;2.30;;;0.80;;
19183;SDS011;9724;51.194;6.856;2022-12-31T06:51:04;1.87;;;0.80;;
19183;SDS011;9724;51.194;6.856;2022-12-31T06:53:30;1.93;;;0.70;;
19183;SDS011;9724;51.194;6.856;2022-12-31T06:55:57;1.90;;;0.70;;
19183;SDS011;9724;51.194;6.856;2022-12-31T06:58:24;6.00;;;0.90;;
19183;SDS011;9724;51.194;6.856;2022-12-31T07:00:52;2.50;;;0.70;;
19183;SDS011;9724;51.194;6.856;2022-12-31T07:03:25;1.07;;;0.70;;
19183;SDS011;9724;51.194;6.856;2022-12-31T07:05:55;1.63;;;1.07;;
19183;SDS011;9724;51.194;6.856;2022-12-31T07:08:36;2.77;;;0.70;;
19183;SDS011;9724;51.194;6.856;2022-12-31T07:11:09;1.93;;;0.80;;
19183;SDS011;9724;51.194;6.856;2022-12-31T07:13:52;1.63;;;0.80;;
19183;SDS011;9724;51.194;6.856;2022-12-31T07:16:27;1.67;;;0.73;;
19183;SDS011;9724;51.194;6.856;2022-12-31T07:19:01;0.93;;;0.63;;
19183;SDS011;9724;51.194;6.856;2022-12-31T07:21:34;1.17;;;0.90;;
19183;SDS011;9724;51.194;6.856;2022-12-31T07:24:03;0.70;;;0.63;;
19183;SDS011;9724;51.194;6.856;2022-12-31T07:26:34;1.30;;;0.70;;
19183;SDS011;9724;51.194;6.856;2022-12-31T07:29:10;2.93;;;0.63;;
19183;SDS011;9724;51.194;6.856;2022-12-31T07:31:45;2.83;;;0.67;;
19183;SDS011;9724;51.194;6.856;2022-12-31T07:34:18;0.60;;;0.60;;
19183;SDS011;9724;51.194;6.856;2022-12-31T07:36:54;3.27;;;0.80;;
19183;SDS011;9724;51.194;6.856;2022-12-31T07:39:25;2.30;;;0.90;;
19183;SDS011;9724;51.194;6.856;2022-12-31T07:41:57;4.80;;;0.90;;
19183;SDS011;9724;51.194;6.856;2022-12-31T07:44:33;2.17;;;0.87;;
19183;SDS011;9724;51.194;6.856;2022-12-31T07:47:06;0.93;;;0.80;;
19183;SDS011;9724;51.194;6.856;2022-12-31T07:49:45;3.57;;;1.10;;
19183;SDS011;9724;51.194;6.856;2022-12-31T07:52:12;1.27;;;0.70;;
19183;SDS011;9724;51.194;6.856;2022-12-31T07:54:39;1.13;;;0.70;;
19183;SDS011;9724;51.194;6.856;2022-12-31T07:57:05;2.90;;;0.80;;
19183;SDS011;9724;51.194;6.856;2022-12-31T07:59:35;2.07;;;0.83;;
19183;SDS011;9724;51.194;6.856;2022-12-31T08:02:12;0.90;;;0.70;;
19183;SDS011;9724;51.194;6.856;2022-12-31T08:04:45;1.07;;;0.80;;
19183;SDS011;9724;51.194;6.856;2022-12-31T08:07:17;1.40;;;0.70;;
19183;SDS011;9724;51.194;6.856;2022-12-31T08:09:48;1.60;;;0.90;;
19183;SDS011;9724;51.194;6.856;2022-12-31T08:12:20;1.10;;;0.80;;
19183;SDS011;9724;51.194;6.856;2022-12-31T08:14:48;2.47;;;0.80;;
19183;SDS011;9724;51.194;6.856;2022-12-31T08:17:16;0.70;;;0.70;;
19183;SDS011;9724;51.194;6.856;2022-12-31T08:19:43;5.80;;;1.30;;
19183;SDS011;9724;51.194;6.856;2022-12-31T08:22:17;2.10;;;0.70;;
19183;SDS011;9724;51.194;6.856;2022-12-31T08:24:57;4.80;;;0.90;;
19183;SDS011;9724;51.194;6.856;2022-12-31T08:27:36;2.70;;;0.97;;
19183;SDS011;9724;51.194;6.856;2022-12-31T08:30:16;1.63;;;0.63;;
19183;SDS011;9724;51.194;6.856;2022-12-31T08:32:45;7.47;;;1.03;;
19183;SDS011;9724;51.194;6.856;2022-12-31T08:35:17;1.37;;;0.73;;
19183;SDS011;9724;51.194;6.856;2022-12-31T08:37:54;5.03;;;0.93;;
19183;SDS011;9724;51.194;6.856;2022-12-31T08:40:25;3.17;;;1.20;;
19183;SDS011;9724;51.194;6.856;2022-12-31T08:43:06;3.83;;;1.20;;
19183;SDS011;9724;51.194;6.856;2022-12-31T08:45:41;2.17;;;1.07;;
19183;SDS011;9724;51.194;6.856;2022-12-31T08:48:11;2.57;;;0.80;;
19183;SDS011;9724;51.194;6.856;2022-12-31T08:50:43;2.53;;;0.70;;
19183;SDS011;9724;51.194;6.856;2022-12-31T08:53:09;2.10;;;0.73;;
19183;SDS011;9724;51.194;6.856;2022-12-31T08:55:36;3.00;;;0.90;;
19183;SDS011;9724;51.194;6.856;2022-12-31T08:58:07;2.77;;;1.00;;
19183;SDS011;9724;51.194;6.856;2022-12-31T09:00:37;4.47;;;0.90;;
19183;SDS011;9724;51.194;6.856;2022-12-31T09:03:16;3.33;;;0.83;;
19183;SDS011;9724;51.194;6.856;2022-12-31T09:05:52;2.00;;;0.80;;
19183;SDS011;9724;51.194;6.856;2022-12-31T09:08:26;2.27;;;0.93;;
19183;SDS011;9724;51.194;6.856;2022-12-31T09:10:57;1.67;;;0.87;;
19183;SDS011;9724;51.194;6.856;2022-12-31T09:13:27;2.40;;;0.87;;
19183;SDS011;9724;51.194;6.856;2022-12-31T09:16:00;1.00;;;0.90;;
19183;SDS011;9724;51.194;6.856;2022-12-31T09:18:33;1.97;;;1.10;;
19183;SDS011;9724;51.194;6.856;2022-12-31T09:21:03;0.97;;;0.80;;
19183;SDS011;9724;51.194;6.856;2022-12-31T09:23:30;3.80;;;0.90;;
19183;SDS011;9724;51.194;6.856;2022-12-31T09:25:58;1.80;;;0.70;;
19183;SDS011;9724;51.194;6.856;2022-12-31T09:28:32;1.93;;;1.00;;
19183;SDS011;9724;51.194;6.856;2022-12-31T09:31:05;5.73;;;1.07;;
19183;SDS011;9724;51.194;6.856;2022-12-31T09:33:37;1.63;;;1.00;;
19183;SDS011;9724;51.194;6.856;2022-12-31T09:36:07;1.97;;;1.00;;
19183;SDS011;9724;51.194;6.856;2022-12-31T09:38:36;4.40;;;0.90;;
19183;SDS011;9724;51.194;6.856;2022-12-31T09:41:11;2.67;;;1.30;;
19183;SDS011;9724;51.194;6.856;2022-12-31T09:53:04;2.83;;;0.90;;
19183;SDS011;9724;51.194;6.856;2022-12-31T09:55:46;5.97;;;1.10;;
19183;SDS011;9724;51.194;6.856;2022-12-31T09:58:17;5.33;;;1.57;;
19183;SDS011;9724;51.194;6.856;2022-12-31T10:00:50;1.90;;;1.10;;
19183;SDS011;9724;51.194;6.856;2022-12-31T10:03:22;2.03;;;0.97;;
19183;SDS011;9724;51.194;6.856;2022-12-31T10:06:02;3.70;;;1.27;;
19183;SDS011;9724;51.194;6.856;2022-12-31T10:08:44;5.13;;;1.23;;
19183;SDS011;9724;51.194;6.856;2022-12-31T10:11:20;2.80;;;0.90;;
19183;SDS011;9724;51.194;6.856;2022-12-31T10:13:58;3.57;;;1.00;;
19183;SDS011;9724;51.194;6.856;2022-12-31T10:16:45;4.93;;;0.87;;
19183;SDS011;9724;51.194;6.856;2022-12-31T10:19:23;2.10;;;1.20;;
19183;SDS011;9724;51.194;6.856;2022-12-31T10:22:10;3.90;;;1.33;;
19183;SDS011;9724;51.194;6.856;2022-12-31T10:24:46;3.23;;;1.03;;
19183;SDS011;9724;51.194;6.856;2022-12-31T10:27:23;3.07;;;1.10;;
19183;SDS011;9724;51.194;6.856;2022-12-31T10:29:57;3.80;;;1.20;;
19183;SDS011;9724;51.194;6.856;2022-12-31T10:32:26;2.20;;;0.90;;
19183;SDS011;9724;51.194;6.856;2022-12-31T10:35:00;2.23;;;1.07;;
19183;SDS011;9724;51.194;6.856;2022-12-31T10:37:27;3.60;;;1.20;;
19183;SDS011;9724;51.194;6.856;2022-12-31T10:40:00;3.73;;;1.07;;
19183;SDS011;9724;51.194;6.856;2022-12-31T10:42:49;5.13;;;1.10;;
19183;SDS011;9724;51.194;6.856;2022-12-31T10:45:46;5.40;;;1.10;;
19183;SDS011;9724;51.194;6.856;2022-12-31T10:48:44;3.03;;;1.00;;
19183;SDS011;9724;51.194;6.856;2022-12-31T10:51:36;2.43;;;1.20;;
19183;SDS011;9724;51.194;6.856;2022-12-31T10:54:41;3.30;;;1.13;;
19183;SDS011;9724;51.194;6.856;2022-12-31T11:00:31;1.87;;;1.03;;
19183;SDS011;9724;51.194;6.856;2022-12-31T11:03:10;2.37;;;1.17;;
19183;SDS011;9724;51.194;6.856;2022-12-31T11:06:14;5.97;;;1.57;;
19183;SDS011;9724;51.194;6.856;2022-12-31T11:11:38;3.70;;;1.40;;
19183;SDS011;9724;51.194;6.856;2022-12-31T11:17:22;3.67;;;1.30;;
19183;SDS011;9724;51.194;6.856;2022-12-31T11:19:56;3.73;;;0.90;;
19183;SDS011;9724;51.194;6.856;2022-12-31T11:22:41;22.93;;;1.20;;
19183;SDS011;9724;51.194;6.856;2022-12-31T11:25:28;1.87;;;0.83;;
19183;SDS011;9724;51.194;6.856;2022-12-31T11:28:04;2.40;;;0.90;;
19183;SDS011;9724;51.194;6.856;2022-12-31T11:30:40;2.33;;;1.10;;
19183;SDS011;9724;51.194;6.856;2022-12-31T11:33:16;5.27;;;1.30;;
19183;SDS011;9724;51.194;6.856;2022-12-31T11:35:54;5.20;;;0.90;;
19183;SDS011;9724;51.194;6.856;2022-12-31T11:38:29;4.37;;;1.10;;
19183;SDS011;9724;51.194;6.856;2022-12-31T11:40:59;4.13;;;1.17;;
19183;SDS011;9724;51.194;6.856;2022-12-31T11:43:31;4.13;;;1.23;;
19183;SDS011;9724;51.194;6.856;2022-12-31T11:46:07;7.07;;;1.50;;
19183;SDS011;9724;51.194;6.856;2022-12-31T11:48:45;5.67;;;0.97;;
19183;SDS011;9724;51.194;6.856;2022-12-31T11:51:31;4.67;;;1.00;;
19183;SDS011;9724;51.194;6.856;2022-12-31T11:54:13;7.77;;;1.33;;
19183;SDS011;9724;51.194;6.856;2022-12-31T11:56:56;2.30;;;0.93;;
19183;SDS011;9724;51.194;6.856;2022-12-31T11:59:27;4.73;;;1.30;;
19183;SDS011;9724;51.194;6.856;2022-12-31T12:01:54;3.17;;;1.20;;
19183;SDS011;9724;51.194;6.856;2022-12-31T12:04:24;3.63;;;0.90;;
19183;SDS011;9724;51.194;6.856;2022-12-31T12:06:50;3.57;;;1.17;;
19183;SDS011;9724;51.194;6.856;2022-12-31T12:09:19;4.47;;;1.13;;
19183;SDS011;9724;51.194;6.856;2022-12-31T12:11:55;6.33;;;1.10;;
19183;SDS011;9724;51.194;6.856;2022-12-31T12:14:27;3.87;;;0.80;;
19183;SDS011;9724;51.194;6.856;2022-12-31T12:16:56;3.67;;;1.27;;
19183;SDS011;9724;51.194;6.856;2022-12-31T12:19:31;3.27;;;1.30;;
19183;SDS011;9724;51.194;6.856;2022-12-31T12:21:58;4.50;;;1.10;;
19183;SDS011;9724;51.194;6.856;2022-12-31T12:24:34;3.93;;;1.20;;
19183;SDS011;9724;51.194;6.856;2022-12-31T12:27:00;3.13;;;1.33;;
19183;SDS011;9724;51.194;6.856;2022-12-31T12:29:27;3.07;;;1.20;;
19183;SDS011;9724;51.194;6.856;2022-12-31T12:31:55;4.97;;;1.03;;
19183;SDS011;9724;51.194;6.856;2022-12-31T12:34:23;8.50;;;1.30;;
19183;SDS011;9724;51.194;6.856;2022-12-31T12:36:52;1.83;;;1.10;;
19183;SDS011;9724;51.194;6.856;2022-12-31T12:39:19;4.03;;;1.43;;
19183;SDS011;9724;51.194;6.856;2022-12-31T12:41:47;3.70;;;1.43;;
19183;SDS011;9724;51.194;6.856;2022-12-31T12:44:24;6.13;;;1.33;;
19183;SDS011;9724;51.194;6.856;2022-12-31T12:46:51;5.10;;;1.20;;
19183;SDS011;9724;51.194;6.856;2022-12-31T12:49:20;5.20;;;1.10;;
19183;SDS011;9724;51.194;6.856;2022-12-31T12:52:04;4.53;;;1.40;;
19183;SDS011;9724;51.194;6.856;2022-12-31T12:54:41;4.93;;;1.13;;
19183;SDS011;9724;51.194;6.856;2022-12-31T12:57:18;2.67;;;1.00;;
19183;SDS011;9724;51.194;6.856;2022-12-31T13:02:42;4.73;;;1.23;;
19183;SDS011;9724;51.194;6.856;2022-12-31T13:05:57;8.43;;;1.23;;
19183;SDS011;9724;51.194;6.856;2022-12-31T13:08:34;1.57;;;1.07;;
19183;SDS011;9724;51.194;6.856;2022-12-31T13:11:13;2.87;;;1.23;;
19183;SDS011;9724;51.194;6.856;2022-12-31T13:13:49;2.23;;;1.20;;
19183;SDS011;9724;51.194;6.856;2022-12-31T13:16:18;1.33;;;1.23;;
19183;SDS011;9724;51.194;6.856;2022-12-31T13:18:50;3.97;;;1.33;;
19183;SDS011;9724;51.194;6.856;2022-12-31T13:24:10;2.87;;;1.13;;
19183;SDS011;9724;51.194;6.856;2022-12-31T13:26:50;3.60;;;1.40;;
19183;SDS011;9724;51.194;6.856;2022-12-31T13:29:21;4.57;;;1.30;;
19183;SDS011;9724;51.194;6.856;2022-12-31T13:31:49;3.67;;;1.13;;
19183;SDS011;9724;51.194;6.856;2022-12-31T13:34:17;3.27;;;1.17;;
19183;SDS011;9724;51.194;6.856;2022-12-31T13:36:47;2.33;;;1.13;;
19183;SDS011;9724;51.194;6.856;2022-12-31T13:39:17;4.50;;;1.30;;
19183;SDS011;9724;51.194;6.856;2022-12-31T13:41:48;3.50;;;1.20;;
19183;SDS011;9724;51.194;6.856;2022-12-31T13:44:20;2.40;;;1.10;;
19183;SDS011;9724;51.194;6.856;2022-12-31T13:46:51;3.73;;;1.40;;
19183;SDS011;9724;51.194;6.856;2022-12-31T13:49:22;2.40;;;1.00;;
19183;SDS011;9724;51.194;6.856;2022-12-31T13:51:52;3.63;;;1.17;;
19183;SDS011;9724;51.194;6.856;2022-12-31T13:54:29;5.80;;;2.23;;
19183;SDS011;9724;51.194;6.856;2022-12-31T13:57:00;6.20;;;1.40;;
19183;SDS011;9724;51.194;6.856;2022-12-31T13:59:30;1.80;;;1.30;;
19183;SDS011;9724;51.194;6.856;2022-12-31T14:02:00;1.97;;;1.37;;
19183;SDS011;9724;51.194;6.856;2022-12-31T14:04:30;4.20;;;1.67;;
19183;SDS011;9724;51.194;6.856;2022-12-31T14:06:59;1.60;;;1.40;;
19183;SDS011;9724;51.194;6.856;2022-12-31T14:09:32;2.10;;;1.50;;
19183;SDS011;9724;51.194;6.856;2022-12-31T14:12:06;8.00;;;1.43;;
19183;SDS011;9724;51.194;6.856;2022-12-31T14:14:40;6.20;;;1.53;;
19183;SDS011;9724;51.194;6.856;2022-12-31T14:17:11;6.37;;;1.73;;
19183;SDS011;9724;51.194;6.856;2022-12-31T14:19:46;4.67;;;1.50;;
19183;SDS011;9724;51.194;6.856;2022-12-31T14:22:22;5.37;;;1.60;;
19183;SDS011;9724;51.194;6.856;2022-12-31T14:24:53;2.03;;;1.60;;
19183;SDS011;9724;51.194;6.856;2022-12-31T14:27:21;5.93;;;1.40;;
19183;SDS011;9724;51.194;6.856;2022-12-31T14:29:50;4.17;;;1.43;;
19183;SDS011;9724;51.194;6.856;2022-12-31T14:32:26;4.50;;;1.80;;
19183;SDS011;9724;51.194;6.856;2022-12-31T14:35:14;3.67;;;1.37;;
19183;SDS011;9724;51.194;6.856;2022-12-31T14:37:50;3.80;;;1.53;;
19183;SDS011;9724;51.194;6.856;2022-12-31T14:40:23;6.90;;;1.73;;
19183;SDS011;9724;51.194;6.856;2022-12-31T14:42:54;4.00;;;1.50;;
19183;SDS011;9724;51.194;6.856;2022-12-31T14:45:33;3.00;;;1.57;;
19183;SDS011;9724;51.194;6.856;2022-12-31T14:48:09;3.03;;;1.37;;
19183;SDS011;9724;51.194;6.856;2022-12-31T14:50:47;3.53;;;1.17;;
19183;SDS011;9724;51.194;6.856;2022-12-31T14:53:16;6.70;;;1.57;;
19183;SDS011;9724;51.194;6.856;2022-12-31T14:55:46;5.60;;;1.50;;
19183;SDS011;9724;51.194;6.856;2022-12-31T14:58:22;5.67;;;1.80;;
19183;SDS011;9724;51.194;6.856;2022-12-31T15:00:54;6.67;;;1.47;;
19183;SDS011;9724;51.194;6.856;2022-12-31T15:03:22;7.30;;;2.00;;
19183;SDS011;9724;51.194;6.856;2022-12-31T15:05:51;5.93;;;1.87;;
19183;SDS011;9724;51.194;6.856;2022-12-31T15:08:25;4.33;;;2.37;;
19183;SDS011;9724;51.194;6.856;2022-12-31T15:11:02;9.57;;;2.00;;
19183;SDS011;9724;51.194;6.856;2022-12-31T15:13:39;3.00;;;1.53;;
19183;SDS011;9724;51.194;6.856;2022-12-31T15:16:17;5.93;;;2.20;;
19183;SDS011;9724;51.194;6.856;2022-12-31T15:18:54;2.63;;;1.90;;
19183;SDS011;9724;51.194;6.856;2022-12-31T15:21:33;5.30;;;1.97;;
19183;SDS011;9724;51.194;6.856;2022-12-31T15:24:11;4.50;;;1.80;;
19183;SDS011;9724;51.194;6.856;2022-12-31T15:26:46;4.37;;;1.83;;
19183;SDS011;9724;51.194;6.856;2022-12-31T15:29:18;4.30;;;1.90;;
19183;SDS011;9724;51.194;6.856;2022-12-31T15:31:49;5.27;;;2.20;;
19183;SDS011;9724;51.194;6.856;2022-12-31T15:34:22;5.40;;;1.77;;
19183;SDS011;9724;51.194;6.856;2022-12-31T15:36:51;10.43;;;1.53;;
19183;SDS011;9724;51.194;6.856;2022-12-31T15:39:22;6.20;;;1.90;;
19183;SDS011;9724;51.194;6.856;2022-12-31T15:42:02;2.97;;;1.60;;
19183;SDS011;9724;51.194;6.856;2022-12-31T15:44:49;5.67;;;1.47;;
19183;SDS011;9724;51.194;6.856;2022-12-31T15:47:23;2.57;;;1.30;;
19183;SDS011;9724;51.194;6.856;2022-12-31T15:49:53;7.30;;;1.87;;
19183;SDS011;9724;51.194;6.856;2022-12-31T15:52:21;2.90;;;1.83;;
19183;SDS011;9724;51.194;6.856;2022-12-31T15:54:51;3.27;;;1.53;;
19183;SDS011;9724;51.194;6.856;2022-12-31T15:57:22;1.87;;;1.73;;